Time;durP1;ratioP1;P1;durP2;ratioP2;P2;SDS_P1;SDS_P2;PMS_P1;PMS_P2;Temp;Humidity;BMP_temperature;BMP_pressure;BME280_temperature;BME280_humidity;BME280_pressure;Samples;Min_cycle;Max_cycle;Signal;HPM_P1;HPM_P2
2020/12/13 00:02:13;;;;;;;19.27;11.33;;;;;;;7.30;70.92;93426.66;5011609;28;20664;-73
2020/12/13 00:04:39;;;;;;;20.47;11.20;;;;;;;7.25;70.59;93429.63;5011768;28;20180;-72
2020/12/13 00:07:05;;;;;;;20.27;11.63;;;;;;;7.04;72.15;93431.97;5011420;28;20208;-72
2020/12/13 00:09:31;;;;;;;21.87;10.93;;;;;;;7.06;71.38;93422.50;5011555;28;20176;-73
2020/12/13 00:11:56;;;;;;;21.07;12.57;;;;;;;7.03;72.49;93433.09;5011359;28;20670;-73
2020/12/13 00:14:22;;;;;;;20.43;10.97;;;;;;;7.06;72.48;93432.34;5010014;28;20196;-73
2020/12/13 00:16:51;;;;;;;21.97;12.03;;;;;;;7.07;73.13;93433.88;5012851;28;20188;-74
2020/12/13 00:19:17;;;;;;;25.17;12.73;;;;;;;7.11;72.88;93432.06;5015954;28;20220;-73
2020/12/13 00:21:42;;;;;;;22.80;12.73;;;;;;;6.95;72.85;93431.44;5015537;28;20587;-74
2020/12/13 00:24:08;;;;;;;25.30;13.80;;;;;;;6.58;74.69;93430.13;5015578;28;20679;-72
2020/12/13 00:26:33;;;;;;;21.13;12.33;;;;;;;6.71;75.05;93427.28;5015133;28;20248;-73
2020/12/13 00:28:59;;;;;;;23.20;12.93;;;;;;;6.85;74.83;93430.19;5015283;28;20205;-73
2020/12/13 00:31:24;;;;;;;23.83;13.80;;;;;;;7.05;73.72;93436.16;5015419;28;20204;-73
2020/12/13 00:33:50;;;;;;;24.57;13.13;;;;;;;6.84;74.68;93418.00;5015121;28;20169;-74
2020/12/13 00:36:18;;;;;;;20.60;12.67;;;;;;;6.89;74.92;93423.03;5015479;28;20177;-74
2020/12/13 00:38:44;;;;;;;22.80;12.87;;;;;;;6.88;74.20;93429.44;5014992;28;20213;-73
2020/12/13 00:41:10;;;;;;;22.03;12.37;;;;;;;6.73;74.10;93439.06;5015373;28;20602;-74
2020/12/13 00:43:35;;;;;;;24.73;12.53;;;;;;;6.61;75.38;93445.31;5013733;28;20374;-72
2020/12/13 00:46:01;;;;;;;23.33;12.93;;;;;;;6.84;74.27;93439.25;5015130;28;20668;-74
2020/12/13 00:48:26;;;;;;;19.63;11.73;;;;;;;6.81;73.61;93432.75;5015015;28;20173;-73
2020/12/13 00:50:52;;;;;;;23.37;13.60;;;;;;;6.77;74.79;93442.56;5015018;28;20184;-73
2020/12/13 00:53:17;;;;;;;22.87;12.97;;;;;;;6.87;74.39;93438.53;5015173;28;20236;-73
2020/12/13 00:55:46;;;;;;;23.60;13.10;;;;;;;7.00;74.19;93436.44;5014904;28;20597;-73
2020/12/13 00:58:12;;;;;;;23.17;13.17;;;;;;;7.10;74.30;93436.59;5014869;28;20243;-73
2020/12/13 01:00:37;;;;;;;20.17;12.07;;;;;;;7.06;73.77;93438.44;5014585;28;20583;-73
2020/12/13 01:03:03;;;;;;;24.30;11.93;;;;;;;7.02;73.94;93427.03;5014912;28;20625;-75
2020/12/13 01:05:29;;;;;;;21.07;12.37;;;;;;;7.02;74.58;93434.97;5014597;28;20556;-71
2020/12/13 01:07:54;;;;;;;20.53;12.33;;;;;;;7.07;74.31;93441.84;5014716;28;20244;-75
2020/12/13 01:10:20;;;;;;;24.27;12.97;;;;;;;7.06;73.98;93435.78;5006719;28;20231;-74
2020/12/13 01:12:46;;;;;;;23.63;13.20;;;;;;;7.05;73.89;93442.22;5009994;28;20168;-72
2020/12/13 01:15:11;;;;;;;24.13;14.33;;;;;;;7.02;74.15;93437.63;5014350;28;20169;-72
2020/12/13 01:17:37;;;;;;;23.50;13.90;;;;;;;7.15;73.52;93433.66;5014748;28;20176;-73
2020/12/13 01:20:04;;;;;;;24.30;12.97;;;;;;;7.18;73.21;93450.72;5014606;28;20196;-73
2020/12/13 01:22:29;;;;;;;24.90;14.47;;;;;;;6.99;74.52;93440.22;5014376;28;20169;-75
2020/12/13 01:24:55;;;;;;;24.90;12.73;;;;;;;7.10;72.59;93449.88;5014513;28;20584;-75
2020/12/13 01:27:20;;;;;;;22.37;12.63;;;;;;;7.01;74.38;93449.34;5013803;28;20217;-73
2020/12/13 01:29:46;;;;;;;25.27;13.63;;;;;;;7.10;73.73;93441.16;5014430;28;20180;-72
2020/12/13 01:32:11;;;;;;;23.93;12.53;;;;;;;7.13;74.11;93449.16;5014297;28;20173;-71
2020/12/13 01:34:37;;;;;;;26.83;14.10;;;;;;;7.13;74.29;93454.47;5014451;28;20181;-71
2020/12/13 01:37:02;;;;;;;25.17;12.63;;;;;;;7.16;73.88;93445.03;5013579;28;20263;-72
2020/12/13 01:39:28;;;;;;;22.30;12.67;;;;;;;7.25;73.38;93440.22;5014149;28;20215;-71
2020/12/13 01:41:58;;;;;;;23.07;13.10;;;;;;;7.24;73.43;93443.22;5013724;28;20236;-71
2020/12/13 01:44:29;;;;;;;21.50;12.67;;;;;;;7.05;74.29;93436.91;5013701;28;20192;-73
2020/12/13 01:46:55;;;;;;;24.53;13.63;;;;;;;7.06;74.34;93440.31;5011127;28;20691;-73
2020/12/13 01:49:20;;;;;;;24.17;13.57;;;;;;;7.11;73.64;93440.78;5013955;28;20602;-72
2020/12/13 01:54:12;;;;;;;26.57;14.17;;;;;;;7.10;73.07;93436.59;5013721;28;20676;-71
2020/12/13 01:56:48;;;;;;;25.73;15.30;;;;;;;7.04;73.40;93429.31;5012239;28;20283;-71
2020/12/13 01:59:17;;;;;;;28.57;14.37;;;;;;;7.02;72.87;93428.91;4992342;28;20666;-74
2020/12/13 02:01:47;;;;;;;24.57;14.73;;;;;;;7.16;72.70;93437.81;4993005;28;20591;-72
2020/12/13 02:04:14;;;;;;;28.67;15.80;;;;;;;7.07;72.84;93437.34;4992824;28;20966;-75
2020/12/13 02:06:40;;;;;;;29.00;15.07;;;;;;;7.14;72.63;93429.47;4993224;28;20927;-74
2020/12/13 02:09:05;;;;;;;29.73;14.33;;;;;;;7.19;72.96;93432.94;4992953;28;20659;-72
2020/12/13 02:11:31;;;;;;;25.50;14.03;;;;;;;7.23;72.92;93437.16;4994300;28;20557;-73
2020/12/13 02:13:57;;;;;;;25.77;14.50;;;;;;;7.16;74.05;93437.06;4993903;28;21086;-74
2020/12/13 02:16:23;;;;;;;23.27;14.17;;;;;;;7.13;74.49;93440.44;4992770;28;20608;-72
2020/12/13 02:18:48;;;;;;;22.47;13.70;;;;;;;7.00;75.11;93434.56;4992381;28;20209;-73
2020/12/13 02:21:14;;;;;;;25.03;13.93;;;;;;;7.02;74.68;93434.97;4992852;28;20217;-74
2020/12/13 02:23:40;;;;;;;27.17;14.37;;;;;;;6.94;75.18;93435.97;4994083;28;20173;-75
2020/12/13 02:26:10;;;;;;;25.47;14.50;;;;;;;6.97;74.51;93437.94;4993718;28;20229;-75
2020/12/13 02:28:35;;;;;;;28.03;14.57;;;;;;;7.01;74.83;93443.28;4993790;28;20603;-73
2020/12/13 02:31:03;;;;;;;28.73;13.07;;;;;;;6.89;75.02;93437.06;4993701;28;20612;-71
2020/12/13 02:33:28;;;;;;;22.37;13.03;;;;;;;6.77;75.24;93452.41;4993998;28;21069;-71
2020/12/13 02:35:54;;;;;;;19.67;12.33;;;;;;;6.59;75.72;93452.88;4993403;28;20585;-71
2020/12/13 02:38:19;;;;;;;21.50;12.20;;;;;;;6.63;75.61;93452.94;4993620;28;20233;-71
2020/12/13 02:40:45;;;;;;;20.97;10.27;;;;;;;6.67;74.62;93447.69;4992570;28;20209;-71
2020/12/13 02:43:10;;;;;;;20.37;11.60;;;;;;;6.68;74.64;93451.88;4993646;28;20611;-72
2020/12/13 02:45:36;;;;;;;18.83;11.23;;;;;;;6.85;74.07;93446.88;4993225;28;20549;-72
2020/12/13 02:48:01;;;;;;;21.13;11.20;;;;;;;6.88;74.51;93448.78;4992343;28;20630;-71
2020/12/13 02:50:27;;;;;;;33.53;11.23;;;;;;;6.98;74.43;93452.72;4993040;28;20604;-71
2020/12/13 02:52:53;;;;;;;16.67;10.50;;;;;;;7.04;73.40;93451.31;4993234;28;20180;-72
2020/12/13 02:55:18;;;;;;;20.17;10.93;;;;;;;6.94;73.75;93454.56;4993306;28;20188;-74
2020/12/13 02:57:44;;;;;;;23.57;11.23;;;;;;;6.60;74.10;93453.66;4993011;28;20220;-72
2020/12/13 03:00:09;;;;;;;20.57;11.63;;;;;;;6.55;74.72;93459.25;4993087;28;20177;-74
2020/12/13 03:02:35;;;;;;;19.60;10.97;;;;;;;6.33;74.85;93453.56;4992977;28;20645;-74
2020/12/13 03:05:00;;;;;;;21.73;11.37;;;;;;;6.19;75.97;93449.91;4993378;28;20180;-72
2020/12/13 03:07:26;;;;;;;19.40;11.20;;;;;;;6.26;76.00;93455.34;4991567;28;20190;-73
2020/12/13 03:09:51;;;;;;;22.30;10.50;;;;;;;6.25;75.61;93454.56;4992820;28;20223;-75
2020/12/13 03:12:17;;;;;;;19.33;10.17;;;;;;;6.34;74.15;93457.78;4992111;28;20240;-72
2020/12/13 03:14:42;;;;;;;17.87;9.53;;;;;;;6.39;74.63;93464.66;4992852;28;20669;-75
2020/12/13 03:17:08;;;;;;;21.27;11.40;;;;;;;6.12;75.58;93463.81;4992837;28;20234;-74
2020/12/13 03:19:33;;;;;;;21.17;10.73;;;;;;;6.23;75.13;93461.31;4992309;28;20260;-72
2020/12/13 03:21:59;;;;;;;24.27;12.53;;;;;;;6.32;74.48;93472.47;4992838;28;20174;-72
2020/12/13 03:24:24;;;;;;;20.93;11.90;;;;;;;6.19;75.38;93471.13;4992393;28;20531;-71
2020/12/13 03:26:50;;;;;;;19.17;11.27;;;;;;;6.36;74.69;93475.97;4992756;28;20221;-70
2020/12/13 03:29:15;;;;;;;22.57;12.07;;;;;;;6.43;74.39;93470.03;4992421;28;20191;-72
2020/12/13 03:31:41;;;;;;;21.53;11.60;;;;;;;6.12;74.55;93457.72;4992517;28;20170;-72
2020/12/13 03:34:06;;;;;;;20.60;11.63;;;;;;;5.90;76.13;93464.50;4992438;28;20269;-72
2020/12/13 03:36:32;;;;;;;27.83;14.73;;;;;;;5.98;76.21;93474.13;4992802;28;20209;-74
2020/12/13 03:38:57;;;;;;;24.67;13.10;;;;;;;6.20;75.79;93464.69;4992685;28;20228;-71
2020/12/13 03:41:23;;;;;;;31.13;14.40;;;;;;;6.24;75.46;93468.19;4992429;28;20174;-73
2020/12/13 03:43:48;;;;;;;30.60;15.73;;;;;;;6.14;75.97;93474.81;4992585;28;20197;-73
2020/12/13 03:46:14;;;;;;;35.23;17.40;;;;;;;6.06;77.01;93468.63;4992182;28;20252;-73
2020/12/13 03:48:39;;;;;;;35.67;17.40;;;;;;;6.08;76.43;93476.22;4992461;28;20209;-72
2020/12/13 03:51:05;;;;;;;34.37;17.97;;;;;;;6.04;77.05;93470.84;4992219;28;20181;-74
2020/12/13 03:53:30;;;;;;;44.90;20.90;;;;;;;6.21;77.11;93474.19;4992428;28;20239;-72
2020/12/13 03:55:56;;;;;;;46.47;23.43;;;;;;;6.09;77.14;93473.22;4992090;28;20560;-73
2020/12/13 03:58:21;;;;;;;52.47;23.80;;;;;;;6.29;76.05;93476.63;4992262;28;20700;-71
2020/12/13 04:00:47;;;;;;;43.50;22.67;;;;;;;6.28;76.56;93477.72;4992085;28;20201;-72
2020/12/13 04:03:12;;;;;;;44.33;21.90;;;;;;;6.29;76.79;93479.28;4992041;28;20232;-71
2020/12/13 04:05:38;;;;;;;41.47;21.83;;;;;;;6.28;76.65;93485.66;4992383;28;20231;-75
2020/12/13 04:08:04;;;;;;;43.07;21.97;;;;;;;6.28;76.21;93476.94;4990033;28;20200;-75
2020/12/13 04:10:29;;;;;;;44.77;21.53;;;;;;;6.31;75.30;93470.97;4990883;28;20263;-76
2020/12/13 04:12:55;;;;;;;35.20;19.73;;;;;;;6.29;75.78;93481.91;4992008;28;20178;-74
2020/12/13 04:15:20;;;;;;;41.27;19.97;;;;;;;6.33;75.80;93481.97;4992134;28;20216;-75
2020/12/13 04:17:46;;;;;;;42.90;21.73;;;;;;;6.40;75.87;93494.56;4991870;28;20201;-74
2020/12/13 04:20:11;;;;;;;44.57;22.23;;;;;;;6.21;76.19;93488.19;5003195;28;20213;-74
2020/12/13 04:22:37;;;;;;;41.13;22.37;;;;;;;6.39;76.13;93491.16;5011496;28;20595;-75
2020/12/13 04:25:04;;;;;;;41.07;22.07;;;;;;;6.31;76.50;93486.88;5011438;28;20169;-72
2020/12/13 04:27:29;;;;;;;42.43;22.80;;;;;;;6.20;76.65;93494.63;5011086;28;20225;-73
2020/12/13 04:29:55;;;;;;;55.07;24.43;;;;;;;6.22;76.59;93504.88;5010216;28;20685;-74
2020/12/13 04:32:21;;;;;;;50.13;23.07;;;;;;;6.19;76.17;93492.31;5011672;28;20213;-72
2020/12/13 04:34:47;;;;;;;52.53;24.80;;;;;;;6.29;76.39;93507.66;5011144;28;20635;-76
2020/12/13 04:37:13;;;;;;;47.57;23.27;;;;;;;6.38;76.15;93507.44;5011508;28;21169;-71
2020/12/13 04:39:38;;;;;;;47.30;23.70;;;;;;;6.42;75.82;93517.00;5010999;28;20642;-71
2020/12/13 04:42:04;;;;;;;48.50;24.97;;;;;;;6.39;75.71;93514.25;5011554;28;20177;-73
2020/12/13 04:44:30;;;;;;;50.63;24.93;;;;;;;6.28;76.18;93504.22;5011218;28;20245;-75
2020/12/13 04:46:55;;;;;;;52.50;24.37;;;;;;;6.09;75.96;93506.91;5010006;28;20181;-74
2020/12/13 04:49:24;;;;;;;44.57;22.33;;;;;;;6.08;76.81;93514.09;5009997;28;20212;-73
2020/12/13 04:51:50;;;;;;;50.90;23.97;;;;;;;6.21;76.72;93513.94;5011691;28;20181;-75
2020/12/13 04:54:20;;;;;;;47.93;23.67;;;;;;;6.21;75.65;93512.06;5011362;28;20988;-74
2020/12/13 04:56:46;;;;;;;52.43;24.90;;;;;;;6.30;75.47;93517.91;5011353;28;20602;-74
2020/12/13 04:59:11;;;;;;;49.83;25.50;;;;;;;6.32;75.47;93517.56;4993896;28;21280;-76
2020/12/13 05:01:37;;;;;;;47.57;23.07;;;;;;;6.24;76.16;93519.31;5009831;28;20176;-74
2020/12/13 05:04:02;;;;;;;53.20;24.43;;;;;;;6.26;75.92;93516.31;5014298;28;20220;-75
2020/12/13 05:06:28;;;;;;;57.70;25.90;;;;;;;6.29;76.16;93508.44;5014847;28;20173;-72
2020/12/13 05:08:53;;;;;;;48.73;23.80;;;;;;;6.35;75.88;93517.63;5013694;28;20594;-74
2020/12/13 05:11:19;;;;;;;46.73;22.40;;;;;;;6.37;75.73;93517.28;5014600;28;20223;-74
2020/12/13 05:13:44;;;;;;;48.37;24.50;;;;;;;6.30;76.66;93525.88;5014793;28;20530;-75
2020/12/13 05:16:10;;;;;;;53.33;23.90;;;;;;;6.30;76.35;93522.44;5014563;28;20655;-71
2020/12/13 05:18:39;;;;;;;53.20;23.93;;;;;;;6.43;75.50;93512.44;5014720;28;20575;-76
2020/12/13 05:21:05;;;;;;;60.23;26.13;;;;;;;6.22;75.70;93504.88;5014410;28;20648;-75
2020/12/13 05:23:31;;;;;;;55.53;23.60;;;;;;;6.09;76.34;93518.25;5014783;28;20671;-77
2020/12/13 05:25:57;;;;;;;48.87;23.43;;;;;;;6.09;76.36;93515.63;5014393;28;20665;-76
2020/12/13 05:28:22;;;;;;;55.03;26.23;;;;;;;5.95;77.47;93515.34;5014500;28;21153;-76
2020/12/13 05:30:48;;;;;;;54.10;25.00;;;;;;;6.04;77.39;93521.19;5013486;28;20726;-74
2020/12/13 05:33:29;;;;;;;61.73;26.17;;;;;;;5.93;77.38;93517.56;5013215;28;20363;-78
2020/12/13 05:36:01;;;;;;;55.10;25.50;;;;;;;5.88;77.42;93515.16;5014504;28;20675;-77
2020/12/13 05:38:34;;;;;;;62.08;25.05;;;;;;;6.01;77.75;93524.56;5014290;28;20663;-74
2020/12/13 05:41:00;;;;;;;59.77;25.67;;;;;;;5.99;77.62;93524.13;5014266;28;20177;-75
2020/12/13 05:43:28;;;;;;;60.30;25.97;;;;;;;6.22;77.00;93528.72;5014057;28;20602;-77
2020/12/13 05:46:18;;;;;;;55.93;26.03;;;;;;;6.18;76.92;93527.91;5014088;28;21181;-74
2020/12/13 05:51:17;;;;;;;63.00;23.63;;;;;;;6.13;77.08;93533.47;5014171;28;20922;-72
2020/12/13 05:53:44;;;;;;;52.23;24.30;;;;;;;6.20;76.22;93536.25;5012949;28;20169;-77
2020/12/13 05:56:09;;;;;;;49.40;24.20;;;;;;;6.27;75.92;93541.69;5013941;28;20706;-77
2020/12/13 05:58:35;;;;;;;56.20;23.77;;;;;;;6.32;75.67;93542.19;5012390;28;21252;-74
2020/12/13 06:01:00;;;;;;;60.13;25.40;;;;;;;6.13;76.82;93542.19;5012656;28;20233;-74
2020/12/13 06:03:36;;;;;;;56.03;23.93;;;;;;;6.13;76.77;93544.84;5012521;28;20205;-77
2020/12/13 06:06:09;;;;;;;56.30;23.77;;;;;;;6.38;75.42;93552.50;5013772;28;20180;-75
2020/12/13 06:08:55;;;;;;;47.20;21.73;;;;;;;6.30;75.45;93556.91;5013691;28;21064;-77
2020/12/13 06:11:21;;;;;;;58.97;25.00;;;;;;;6.22;75.53;93556.00;5013260;28;20607;-74
2020/12/13 06:13:52;;;;;;;44.67;22.67;;;;;;;6.16;75.35;93551.31;5011870;28;20675;-74
2020/12/13 06:16:17;;;;;;;43.63;20.57;;;;;;;6.09;75.73;93563.31;5013208;28;20171;-73
2020/12/13 06:18:43;;;;;;;48.20;21.03;;;;;;;6.28;75.41;93570.50;5013546;28;20667;-73
2020/12/13 06:21:08;;;;;;;49.47;21.20;;;;;;;6.31;75.39;93569.03;4996164;28;20208;-74
2020/12/13 06:23:35;;;;;;;51.40;21.17;;;;;;;6.05;76.42;93567.00;5012052;28;20236;-74
2020/12/13 06:26:00;;;;;;;53.67;22.93;;;;;;;6.08;76.49;93574.28;4995695;28;20319;-74
2020/12/13 06:28:25;;;;;;;45.83;22.57;;;;;;;6.14;76.36;93582.72;5013103;28;21127;-74
2020/12/13 06:30:51;;;;;;;48.63;21.17;;;;;;;6.13;76.04;93578.53;5012171;28;20173;-74
2020/12/13 06:33:19;;;;;;;51.30;22.83;;;;;;;6.02;76.23;93568.47;5013049;28;20184;-74
2020/12/13 06:35:45;;;;;;;45.70;21.30;;;;;;;6.15;76.08;93581.59;5013323;28;20176;-74
2020/12/13 06:38:15;;;;;;;48.20;20.33;;;;;;;6.35;74.66;93577.84;5012732;28;20598;-73
2020/12/13 06:40:42;;;;;;;48.17;20.20;;;;;;;6.07;76.58;93584.09;5012798;28;21072;-74
2020/12/13 06:43:08;;;;;;;48.43;21.50;;;;;;;5.98;77.01;93569.50;5013106;28;20200;-73
2020/12/13 06:45:34;;;;;;;52.67;22.23;;;;;;;6.00;77.24;93580.53;5013132;28;20184;-74
2020/12/13 06:47:59;;;;;;;57.03;23.77;;;;;;;6.07;76.33;93573.50;5011858;28;20630;-73
2020/12/13 06:50:25;;;;;;;56.47;22.30;;;;;;;6.08;75.89;93587.53;5012373;28;20165;-74
2020/12/13 06:52:51;;;;;;;49.73;23.20;;;;;;;5.92;77.12;93589.44;5010301;28;20212;-74
2020/12/13 06:55:17;;;;;;;53.33;22.83;;;;;;;5.89;76.65;93590.88;5011072;28;20264;-72
2020/12/13 06:57:44;;;;;;;53.92;23.08;;;;;;;5.80;77.65;93590.31;5011639;28;20189;-70
2020/12/13 07:00:09;;;;;;;57.28;23.13;;;;;;;5.93;77.70;93597.03;5009224;28;20217;-71
2020/12/13 07:03:01;;;;;;;51.00;20.93;;;;;;;6.04;77.56;93597.28;5012147;28;20188;-70
2020/12/13 07:05:46;;;;;;;48.40;22.73;;;;;;;6.08;76.94;93598.88;5010097;28;20188;-71
2020/12/13 07:08:18;;;;;;;59.33;24.50;;;;;;;6.07;77.72;93602.66;5012292;28;20188;-71
2020/12/13 07:10:46;;;;;;;54.90;24.47;;;;;;;6.13;77.70;93605.81;5011356;28;21026;-73
2020/12/13 07:13:18;;;;;;;62.63;24.63;;;;;;;6.01;76.98;93606.69;5012200;28;20586;-71
2020/12/13 07:15:51;;;;;;;58.83;23.70;;;;;;;6.15;77.09;93603.56;5011350;28;21157;-72
2020/12/13 07:18:17;;;;;;;55.27;22.83;;;;;;;6.11;77.59;93605.38;5010806;28;20197;-71
2020/12/13 07:20:44;;;;;;;52.10;22.60;;;;;;;6.09;77.41;93613.66;5012427;28;20595;-74
2020/12/13 07:23:09;;;;;;;55.10;24.03;;;;;;;6.25;76.43;93620.81;5012503;28;20192;-74
2020/12/13 07:25:35;;;;;;;56.57;24.57;;;;;;;5.95;77.43;93612.59;5011856;28;20587;-72
2020/12/13 07:28:00;;;;;;;55.27;24.30;;;;;;;5.87;78.05;93618.84;5012343;28;20188;-71
2020/12/13 07:30:26;;;;;;;53.97;24.47;;;;;;;5.86;77.75;93626.00;5010980;28;20185;-71
2020/12/13 07:32:51;;;;;;;52.33;23.97;;;;;;;6.09;78.10;93621.63;4994633;28;20185;-73
2020/12/13 07:35:17;;;;;;;53.07;24.50;;;;;;;6.21;77.47;93625.25;5011844;28;20181;-72
2020/12/13 07:37:43;;;;;;;49.40;23.13;;;;;;;6.34;76.89;93632.75;5012623;28;20176;-70
2020/12/13 07:40:10;;;;;;;54.20;23.60;;;;;;;6.24;77.12;93641.25;5012096;28;20208;-73
2020/12/13 07:42:36;;;;;;;61.60;26.40;;;;;;;6.29;76.56;93640.22;5012339;28;21162;-74
2020/12/13 07:45:01;;;;;;;64.30;27.00;;;;;;;6.32;77.47;93644.81;5011057;28;20649;-75
2020/12/13 07:47:27;;;;;;;57.73;25.93;;;;;;;6.38;77.32;93647.94;5012213;28;20572;-73
2020/12/13 07:49:52;;;;;;;50.40;24.80;;;;;;;6.48;76.68;93658.00;5012223;28;20223;-76
2020/12/13 07:52:18;;;;;;;55.70;25.43;;;;;;;6.42;77.60;93652.22;5012015;28;20200;-73
2020/12/13 07:54:43;;;;;;;59.47;25.37;;;;;;;6.52;76.27;93656.97;5012597;28;20541;-74
2020/12/13 07:57:16;;;;;;;56.33;26.70;;;;;;;6.68;75.60;93658.75;5012058;28;20177;-73
2020/12/13 07:59:42;;;;;;;54.50;24.87;;;;;;;6.70;75.26;93659.19;5012379;28;20751;-70
2020/12/13 08:02:08;;;;;;;51.10;23.47;;;;;;;6.80;74.47;93664.72;5011809;28;20595;-75
2020/12/13 08:04:35;;;;;;;53.67;24.83;;;;;;;6.91;74.17;93664.91;5010734;28;20184;-72
2020/12/13 08:07:04;;;;;;;54.37;24.13;;;;;;;6.80;75.10;93680.63;5011994;28;20947;-73
2020/12/13 08:09:30;;;;;;;55.47;25.37;;;;;;;6.80;75.20;93675.31;5012205;28;20646;-73
2020/12/13 08:11:56;;;;;;;48.60;24.50;;;;;;;6.89;74.48;93678.50;5012030;28;20682;-73
2020/12/13 08:14:22;;;;;;;57.83;24.57;;;;;;;6.75;74.43;93674.84;5012084;28;20256;-73
2020/12/13 08:16:51;;;;;;;54.80;25.43;;;;;;;6.76;75.12;93673.72;5012068;28;20180;-72
2020/12/13 08:19:17;;;;;;;54.53;24.97;;;;;;;6.57;75.14;93664.66;5011835;28;21267;-75
2020/12/13 08:21:50;;;;;;;48.30;21.73;;;;;;;6.77;74.32;93669.94;5010328;28;20650;-74
2020/12/13 08:24:15;;;;;;;55.53;23.60;;;;;;;6.85;73.62;93667.09;5010561;28;20675;-74
2020/12/13 08:26:42;;;;;;;47.53;23.03;;;;;;;6.76;74.36;93682.44;5010573;28;20662;-73
2020/12/13 08:29:07;;;;;;;50.73;23.07;;;;;;;6.68;75.75;93661.41;5011829;28;20177;-73
2020/12/13 08:31:33;;;;;;;46.17;21.00;;;;;;;6.82;74.77;93667.00;5010908;28;21177;-74
2020/12/13 08:34:03;;;;;;;44.17;21.53;;;;;;;6.91;74.28;93664.91;5010883;28;20240;-75
2020/12/13 08:36:28;;;;;;;49.83;21.83;;;;;;;6.95;74.00;93667.63;5011650;28;20177;-72
2020/12/13 08:39:06;;;;;;;50.43;23.37;;;;;;;7.01;73.99;93660.91;5014548;28;20653;-74
2020/12/13 08:41:31;;;;;;;51.47;24.40;;;;;;;6.75;72.92;93667.66;5015656;28;20181;-74
2020/12/13 08:43:57;;;;;;;50.90;22.90;;;;;;;6.73;73.67;93674.41;5015593;28;20682;-71
2020/12/13 08:46:42;;;;;;;50.87;23.77;;;;;;;6.87;74.35;93680.00;5015515;28;20722;-73
2020/12/13 08:49:07;;;;;;;48.47;22.63;;;;;;;6.87;74.06;93685.31;5015391;28;20181;-72
2020/12/13 08:51:33;;;;;;;50.53;22.37;;;;;;;6.97;73.62;93690.06;5015509;28;21142;-70
2020/12/13 08:54:03;;;;;;;52.30;24.40;;;;;;;6.94;73.01;93687.31;5014083;28;20692;-74
2020/12/13 08:56:32;;;;;;;49.97;24.73;;;;;;;7.04;73.21;93698.13;5001621;28;20586;-74
2020/12/13 08:58:57;;;;;;;60.17;25.40;;;;;;;7.07;73.43;93686.84;4993511;28;20627;-75
2020/12/13 09:01:27;;;;;;;52.77;23.90;;;;;;;10.17;94.55;93698.00;4992902;28;20577;-73
2020/12/13 09:03:53;;;;;;;51.17;24.47;;;;;;;12.00;86.18;93702.91;4992119;28;20181;-72
2020/12/13 09:06:26;;;;;;;44.43;22.60;;;;;;;12.07;70.76;93707.50;4991077;28;21148;-73
2020/12/13 09:08:52;;;;;;;49.30;22.43;;;;;;;11.75;62.52;93702.88;4994012;28;20608;-72
2020/12/13 09:11:32;;;;;;;52.43;25.23;;;;;;;12.12;66.18;93693.72;4994974;28;20938;-73
2020/12/13 09:13:58;;;;;;;52.70;25.90;;;;;;;11.53;58.74;93687.94;4994816;28;20170;-73
2020/12/13 09:16:28;;;;;;;55.07;27.00;;;;;;;9.77;63.37;93683.59;4992724;28;21039;-78
2020/12/13 09:19:23;;;;;;;50.60;26.17;;;;;;;9.08;66.56;93690.53;4994493;28;20702;-79
2020/12/13 09:21:54;;;;;;;53.87;24.47;;;;;;;8.47;67.06;93687.94;5013140;28;20677;-79
2020/12/13 09:24:22;;;;;;;50.93;23.97;;;;;;;8.05;68.65;93681.97;5012824;28;20602;-79
2020/12/13 09:27:00;;;;;;;51.83;25.97;;;;;;;7.73;70.50;93692.09;5012307;28;20830;-78
2020/12/13 09:29:26;;;;;;;48.53;23.87;;;;;;;7.88;70.16;93689.31;5012019;28;20603;-79
2020/12/13 09:31:52;;;;;;;53.83;24.30;;;;;;;8.00;71.06;93687.59;5011958;28;20603;-74
2020/12/13 09:34:17;;;;;;;53.17;24.63;;;;;;;7.79;70.42;93688.78;5010909;28;20975;-75
2020/12/13 09:36:43;;;;;;;53.70;24.27;;;;;;;7.74;70.62;93683.78;5012073;28;20227;-79
2020/12/13 09:39:09;;;;;;;51.63;23.97;;;;;;;7.82;69.69;93682.78;5010735;28;21007;-77
2020/12/13 09:41:35;;;;;;;46.03;21.73;;;;;;;7.78;71.16;93683.84;5010512;28;20603;-80
2020/12/13 09:44:00;;;;;;;48.50;22.90;;;;;;;7.49;72.29;93685.28;5009814;28;20580;-78
2020/12/13 09:46:26;;;;;;;52.37;23.20;;;;;;;7.65;71.65;93694.66;5010719;28;20193;-77
2020/12/13 09:48:52;;;;;;;56.23;23.00;;;;;;;7.45;72.32;93690.50;5011961;28;20697;-77
2020/12/13 09:51:17;;;;;;;44.40;20.83;;;;;;;7.57;72.07;93686.91;5012333;28;20303;-81
2020/12/13 09:53:44;;;;;;;50.77;23.53;;;;;;;7.39;71.73;93681.31;5012518;28;20702;-80
2020/12/13 09:56:10;;;;;;;47.27;21.93;;;;;;;7.27;72.42;93679.59;5012858;28;20177;-79
2020/12/13 09:58:35;;;;;;;45.00;21.17;;;;;;;7.38;72.51;93667.25;5001030;28;20732;-77
2020/12/13 10:01:01;;;;;;;46.30;21.83;;;;;;;7.51;72.72;93673.16;4994567;28;20665;-80
2020/12/13 10:03:26;;;;;;;41.40;20.03;;;;;;;7.69;72.25;93681.44;4970391;28;20233;-80
2020/12/13 10:06:10;;;;;;;42.47;20.43;;;;;;;7.60;72.63;93672.94;5014458;28;20664;-77
2020/12/13 10:11:20;;;;;;;41.77;21.07;;;;;;;7.72;71.85;93661.34;5014665;28;20606;-76
2020/12/13 10:13:45;;;;;;;50.50;23.10;;;;;;;7.77;72.57;93658.41;5015713;28;20588;-73
2020/12/13 10:16:11;;;;;;;53.00;24.07;;;;;;;7.85;71.37;93660.78;5013952;28;20164;-78
2020/12/13 10:18:37;;;;;;;53.00;23.47;;;;;;;7.93;72.32;93667.75;5014004;28;20197;-80
2020/12/13 10:21:03;;;;;;;51.47;24.60;;;;;;;7.66;71.53;93661.66;5013610;28;20201;-77
2020/12/13 10:23:28;;;;;;;55.97;26.37;;;;;;;7.83;72.31;93662.28;5013016;28;20655;-80
2020/12/13 10:25:54;;;;;;;63.17;28.57;;;;;;;7.88;71.21;93661.97;5013395;28;20180;-79
2020/12/13 10:28:19;;;;;;;61.50;30.27;;;;;;;7.96;71.90;93668.94;5014078;28;20177;-80
2020/12/13 10:30:49;;;;;;;58.37;29.47;;;;;;;7.96;71.79;93661.72;5014821;28;20743;-80
2020/12/13 10:33:14;;;;;;;65.33;28.83;;;;;;;8.12;72.76;93666.13;5013759;28;20188;-78
2020/12/13 10:35:40;;;;;;;64.03;29.23;;;;;;;8.35;71.19;93666.06;5013270;28;20585;-74
2020/12/13 10:38:05;;;;;;;59.93;29.17;;;;;;;8.44;70.45;93664.69;5012798;28;20220;-79
2020/12/13 10:40:34;;;;;;;61.67;28.67;;;;;;;8.36;70.59;93654.31;5013354;28;20212;-76
2020/12/13 10:42:59;;;;;;;53.53;25.43;;;;;;;8.52;69.24;93646.16;5013297;28;20177;-80
2020/12/13 10:45:25;;;;;;;55.53;26.00;;;;;;;8.44;69.56;93656.72;5013800;28;20594;-80
2020/12/13 10:47:50;;;;;;;54.83;25.10;;;;;;;8.18;69.00;93648.72;5012760;28;20180;-78
2020/12/13 10:50:16;;;;;;;53.13;24.97;;;;;;;8.19;70.55;93653.72;5012997;28;20203;-77
2020/12/13 10:52:41;;;;;;;49.73;25.00;;;;;;;8.37;69.62;93653.22;5012609;28;20200;-72
2020/12/13 10:55:07;;;;;;;49.93;25.73;;;;;;;8.55;69.42;93654.19;5012904;28;20216;-74
2020/12/13 10:57:32;;;;;;;51.83;25.37;;;;;;;8.62;68.08;93662.25;5012627;28;20188;-73
2020/12/13 10:59:58;;;;;;;50.10;24.63;;;;;;;8.47;68.76;93661.31;5012748;28;20209;-75
2020/12/13 11:02:23;;;;;;;46.60;23.93;;;;;;;8.38;69.11;93660.06;5013514;28;20205;-74
2020/12/13 11:04:49;;;;;;;49.70;25.10;;;;;;;8.33;68.82;93668.31;5012522;28;20575;-73
2020/12/13 11:07:14;;;;;;;51.97;25.27;;;;;;;8.29;69.12;93662.19;5012384;28;20640;-73
2020/12/13 11:09:40;;;;;;;53.23;26.37;;;;;;;8.21;69.07;93664.75;5012232;28;20193;-75
2020/12/13 11:12:05;;;;;;;52.60;27.07;;;;;;;8.31;69.49;93657.28;5012514;28;20169;-75
2020/12/13 11:14:31;;;;;;;56.00;27.53;;;;;;;8.22;70.06;93655.63;5012361;28;20630;-74
2020/12/13 11:16:56;;;;;;;46.07;23.23;;;;;;;8.49;67.87;93666.28;5012879;28;20176;-75
2020/12/13 11:19:22;;;;;;;44.93;25.10;;;;;;;8.31;67.89;93657.28;5011695;28;20629;-76
2020/12/13 11:21:47;;;;;;;46.03;25.80;;;;;;;8.29;68.27;93657.63;4995762;28;20240;-72
2020/12/13 11:24:13;;;;;;;53.43;26.63;;;;;;;8.45;68.42;93654.81;4992765;28;20177;-77
2020/12/13 11:26:39;;;;;;;51.57;26.97;;;;;;;8.67;70.56;93656.63;5007715;28;20241;-74
2020/12/13 11:29:04;;;;;;;46.53;22.87;;;;;;;8.74;67.88;93659.34;4993272;28;20174;-74
2020/12/13 11:31:30;;;;;;;44.93;22.67;;;;;;;8.71;68.42;93657.44;4992875;28;20197;-72